sensor_id;sensor_type;location;lat;lon;timestamp;pressure;altitude;pressure_sealevel;temperature;humidity
13027;BME280;6580;42.680;23.324;2022-10-16T00:01:27;95891.94;;;11.98;99.59
13027;BME280;6580;42.680;23.324;2022-10-16T00:04:00;95898.69;;;11.65;100.00
13027;BME280;6580;42.680;23.324;2022-10-16T00:06:29;95891.31;;;11.50;100.00
13027;BME280;6580;42.680;23.324;2022-10-16T00:08:56;95908.75;;;11.54;100.00
13027;BME280;6580;42.680;23.324;2022-10-16T00:11:28;95901.00;;;11.60;100.00
13027;BME280;6580;42.680;23.324;2022-10-16T00:13:59;95896.94;;;11.56;100.00
13027;BME280;6580;42.680;23.324;2022-10-16T00:16:27;95908.56;;;11.92;100.00
13027;BME280;6580;42.680;23.324;2022-10-16T00:18:54;95905.81;;;12.01;99.80
13027;BME280;6580;42.680;23.324;2022-10-16T00:21:28;95906.03;;;11.90;99.50
13027;BME280;6580;42.680;23.324;2022-10-16T00:23:57;95909.97;;;11.86;100.00
13027;BME280;6580;42.680;23.324;2022-10-16T00:26:28;95909.19;;;11.76;100.00
13027;BME280;6580;42.680;23.324;2022-10-16T00:28:55;95913.38;;;11.79;99.81
13027;BME280;6580;42.680;23.324;2022-10-16T00:31:23;95915.47;;;11.85;100.00
13027;BME280;6580;42.680;23.324;2022-10-16T00:33:50;95925.22;;;11.76;100.00
13027;BME280;6580;42.680;23.324;2022-10-16T00:36:19;95917.63;;;11.81;99.86
13027;BME280;6580;42.680;23.324;2022-10-16T00:38:46;95925.69;;;11.89;99.62
13027;BME280;6580;42.680;23.324;2022-10-16T00:41:16;95929.44;;;11.69;99.45
13027;BME280;6580;42.680;23.324;2022-10-16T00:43:46;95916.72;;;11.63;100.00
13027;BME280;6580;42.680;23.324;2022-10-16T00:46:17;95916.47;;;11.84;99.58
13027;BME280;6580;42.680;23.324;2022-10-16T00:48:48;95908.09;;;11.69;98.41
13027;BME280;6580;42.680;23.324;2022-10-16T00:51:17;95916.81;;;11.35;100.00
13027;BME280;6580;42.680;23.324;2022-10-16T00:53:46;95922.28;;;11.24;100.00
13027;BME280;6580;42.680;23.324;2022-10-16T00:56:13;95910.66;;;11.15;100.00
13027;BME280;6580;42.680;23.324;2022-10-16T00:58:41;95905.06;;;11.18;100.00
13027;BME280;6580;42.680;23.324;2022-10-16T01:01:09;95906.94;;;11.09;100.00
13027;BME280;6580;42.680;23.324;2022-10-16T01:03:37;95924.59;;;11.10;100.00
13027;BME280;6580;42.680;23.324;2022-10-16T01:06:19;95928.19;;;11.27;100.00
13027;BME280;6580;42.680;23.324;2022-10-16T01:08:57;95930.44;;;11.22;100.00
13027;BME280;6580;42.680;23.324;2022-10-16T01:11:33;95921.78;;;11.02;100.00
13027;BME280;6580;42.680;23.324;2022-10-16T01:14:06;95929.34;;;11.15;100.00
13027;BME280;6580;42.680;23.324;2022-10-16T01:16:39;95929.06;;;11.18;100.00
13027;BME280;6580;42.680;23.324;2022-10-16T01:19:15;95925.69;;;11.16;100.00
13027;BME280;6580;42.680;23.324;2022-10-16T01:21:47;95923.47;;;11.03;100.00
13027;BME280;6580;42.680;23.324;2022-10-16T01:24:27;95921.66;;;10.94;100.00
13027;BME280;6580;42.680;23.324;2022-10-16T01:27:17;95911.13;;;11.11;100.00
13027;BME280;6580;42.680;23.324;2022-10-16T01:29:51;95914.34;;;11.05;100.00
13027;BME280;6580;42.680;23.324;2022-10-16T01:32:23;95887.88;;;10.94;100.00
13027;BME280;6580;42.680;23.324;2022-10-16T01:34:55;95915.75;;;11.09;100.00
13027;BME280;6580;42.680;23.324;2022-10-16T01:37:32;95907.09;;;10.79;100.00
13027;BME280;6580;42.680;23.324;2022-10-16T01:40:00;95916.44;;;11.11;100.00
13027;BME280;6580;42.680;23.324;2022-10-16T01:42:34;95915.53;;;11.29;100.00
13027;BME280;6580;42.680;23.324;2022-10-16T01:45:04;95912.56;;;11.32;100.00
13027;BME280;6580;42.680;23.324;2022-10-16T01:47:33;95910.25;;;11.10;100.00
13027;BME280;6580;42.680;23.324;2022-10-16T01:50:05;95921.47;;;11.23;100.00
13027;BME280;6580;42.680;23.324;2022-10-16T01:52:36;95927.84;;;11.40;100.00
13027;BME280;6580;42.680;23.324;2022-10-16T01:55:08;95928.25;;;11.09;100.00
13027;BME280;6580;42.680;23.324;2022-10-16T01:57:44;95930.63;;;10.93;100.00
13027;BME280;6580;42.680;23.324;2022-10-16T02:00:14;95935.25;;;11.10;100.00
13027;BME280;6580;42.680;23.324;2022-10-16T02:02:46;95933.91;;;10.87;100.00
13027;BME280;6580;42.680;23.324;2022-10-16T02:05:18;95936.28;;;10.80;100.00
13027;BME280;6580;42.680;23.324;2022-10-16T02:07:47;95933.03;;;10.96;100.00
13027;BME280;6580;42.680;23.324;2022-10-16T02:10:15;95942.84;;;10.95;100.00
13027;BME280;6580;42.680;23.324;2022-10-16T02:12:46;95941.19;;;10.85;100.00
13027;BME280;6580;42.680;23.324;2022-10-16T02:15:16;95942.00;;;10.85;100.00
13027;BME280;6580;42.680;23.324;2022-10-16T02:17:43;95951.56;;;10.88;100.00
13027;BME280;6580;42.680;23.324;2022-10-16T02:20:10;95949.44;;;10.91;100.00
13027;BME280;6580;42.680;23.324;2022-10-16T02:22:40;95952.34;;;11.16;100.00
13027;BME280;6580;42.680;23.324;2022-10-16T02:25:12;95962.50;;;10.75;100.00
13027;BME280;6580;42.680;23.324;2022-10-16T02:27:49;95959.94;;;10.93;100.00
13027;BME280;6580;42.680;23.324;2022-10-16T02:30:21;95949.00;;;10.96;100.00
13027;BME280;6580;42.680;23.324;2022-10-16T02:32:51;95966.28;;;10.92;100.00
13027;BME280;6580;42.680;23.324;2022-10-16T02:35:21;95963.91;;;10.89;100.00
13027;BME280;6580;42.680;23.324;2022-10-16T02:37:50;95950.97;;;10.94;100.00
13027;BME280;6580;42.680;23.324;2022-10-16T02:40:18;95959.00;;;10.75;100.00
13027;BME280;6580;42.680;23.324;2022-10-16T02:42:51;95954.94;;;10.71;100.00
13027;BME280;6580;42.680;23.324;2022-10-16T02:45:18;95961.97;;;10.72;100.00
13027;BME280;6580;42.680;23.324;2022-10-16T02:47:45;95966.28;;;10.92;100.00
13027;BME280;6580;42.680;23.324;2022-10-16T02:50:12;95969.94;;;10.91;100.00
13027;BME280;6580;42.680;23.324;2022-10-16T02:52:41;95962.34;;;10.67;100.00
13027;BME280;6580;42.680;23.324;2022-10-16T02:55:10;95976.53;;;10.49;100.00
13027;BME280;6580;42.680;23.324;2022-10-16T02:57:37;95976.81;;;10.46;100.00
13027;BME280;6580;42.680;23.324;2022-10-16T03:00:09;95973.72;;;10.60;100.00
13027;BME280;6580;42.680;23.324;2022-10-16T03:02:38;95982.56;;;10.70;100.00
13027;BME280;6580;42.680;23.324;2022-10-16T03:05:05;95981.00;;;10.96;100.00
13027;BME280;6580;42.680;23.324;2022-10-16T03:07:32;95972.03;;;10.78;100.00
13027;BME280;6580;42.680;23.324;2022-10-16T03:09:59;95978.66;;;10.55;100.00
13027;BME280;6580;42.680;23.324;2022-10-16T03:12:26;95989.66;;;10.31;100.00
13027;BME280;6580;42.680;23.324;2022-10-16T03:14:53;95985.22;;;10.41;100.00
13027;BME280;6580;42.680;23.324;2022-10-16T03:17:22;95993.22;;;10.51;100.00
13027;BME280;6580;42.680;23.324;2022-10-16T03:19:49;95985.63;;;10.27;100.00
13027;BME280;6580;42.680;23.324;2022-10-16T03:22:16;95992.34;;;10.41;100.00
13027;BME280;6580;42.680;23.324;2022-10-16T03:24:43;95989.41;;;10.53;100.00
13027;BME280;6580;42.680;23.324;2022-10-16T03:27:10;95990.94;;;10.56;100.00
13027;BME280;6580;42.680;23.324;2022-10-16T03:29:37;95992.94;;;10.73;100.00
13027;BME280;6580;42.680;23.324;2022-10-16T03:32:03;95991.66;;;10.58;100.00
13027;BME280;6580;42.680;23.324;2022-10-16T03:34:32;95993.63;;;10.75;100.00
13027;BME280;6580;42.680;23.324;2022-10-16T03:37:01;96000.75;;;10.36;100.00
13027;BME280;6580;42.680;23.324;2022-10-16T03:39:28;96001.44;;;10.29;100.00
13027;BME280;6580;42.680;23.324;2022-10-16T03:41:55;96003.25;;;10.19;100.00
13027;BME280;6580;42.680;23.324;2022-10-16T03:44:22;96000.59;;;10.38;100.00
13027;BME280;6580;42.680;23.324;2022-10-16T03:46:49;95987.19;;;10.49;100.00
13027;BME280;6580;42.680;23.324;2022-10-16T03:49:16;95994.09;;;10.03;100.00
13027;BME280;6580;42.680;23.324;2022-10-16T03:51:44;96002.47;;;9.98;100.00
13027;BME280;6580;42.680;23.324;2022-10-16T03:54:11;95997.41;;;9.95;100.00
13027;BME280;6580;42.680;23.324;2022-10-16T03:56:38;95993.00;;;10.14;100.00
13027;BME280;6580;42.680;23.324;2022-10-16T03:59:05;95978.69;;;10.06;100.00
13027;BME280;6580;42.680;23.324;2022-10-16T04:01:32;95992.16;;;10.05;100.00
13027;BME280;6580;42.680;23.324;2022-10-16T04:03:59;95994.53;;;10.08;100.00
13027;BME280;6580;42.680;23.324;2022-10-16T04:06:27;95986.28;;;10.20;100.00
13027;BME280;6580;42.680;23.324;2022-10-16T04:08:55;95981.63;;;10.03;100.00
13027;BME280;6580;42.680;23.324;2022-10-16T04:11:22;96000.44;;;10.11;100.00
13027;BME280;6580;42.680;23.324;2022-10-16T04:13:49;95999.44;;;10.12;100.00
13027;BME280;6580;42.680;23.324;2022-10-16T04:16:16;95990.13;;;9.97;100.00
13027;BME280;6580;42.680;23.324;2022-10-16T04:18:43;95995.84;;;10.22;100.00
13027;BME280;6580;42.680;23.324;2022-10-16T04:21:11;96000.34;;;10.41;100.00
13027;BME280;6580;42.680;23.324;2022-10-16T04:23:37;95993.00;;;10.14;100.00
13027;BME280;6580;42.680;23.324;2022-10-16T04:26:06;95996.56;;;9.95;100.00
13027;BME280;6580;42.680;23.324;2022-10-16T04:28:33;96004.22;;;10.09;100.00
13027;BME280;6580;42.680;23.324;2022-10-16T04:31:03;95984.28;;;10.03;100.00
13027;BME280;6580;42.680;23.324;2022-10-16T04:33:32;96008.72;;;10.27;100.00
13027;BME280;6580;42.680;23.324;2022-10-16T04:35:59;96012.50;;;10.15;100.00
13027;BME280;6580;42.680;23.324;2022-10-16T04:38:27;96014.09;;;9.97;100.00
13027;BME280;6580;42.680;23.324;2022-10-16T04:40:55;96007.75;;;9.89;100.00
13027;BME280;6580;42.680;23.324;2022-10-16T04:43:24;96011.22;;;9.80;100.00
13027;BME280;6580;42.680;23.324;2022-10-16T04:45:52;96019.00;;;9.62;100.00
13027;BME280;6580;42.680;23.324;2022-10-16T04:48:20;96016.75;;;9.67;100.00
13027;BME280;6580;42.680;23.324;2022-10-16T04:50:47;96027.50;;;9.56;100.00
13027;BME280;6580;42.680;23.324;2022-10-16T04:53:15;96026.63;;;9.56;100.00
13027;BME280;6580;42.680;23.324;2022-10-16T04:55:41;96035.38;;;9.67;100.00
13027;BME280;6580;42.680;23.324;2022-10-16T04:58:10;96041.50;;;9.58;100.00
13027;BME280;6580;42.680;23.324;2022-10-16T05:00:39;96031.06;;;9.46;100.00
13027;BME280;6580;42.680;23.324;2022-10-16T05:03:06;96039.34;;;9.73;100.00
13027;BME280;6580;42.680;23.324;2022-10-16T05:05:34;96042.91;;;9.92;100.00
13027;BME280;6580;42.680;23.324;2022-10-16T05:08:01;96028.25;;;9.68;100.00
13027;BME280;6580;42.680;23.324;2022-10-16T05:10:28;96032.72;;;9.67;100.00
13027;BME280;6580;42.680;23.324;2022-10-16T05:12:55;96043.81;;;9.72;100.00
13027;BME280;6580;42.680;23.324;2022-10-16T05:15:22;96048.81;;;10.25;100.00
13027;BME280;6580;42.680;23.324;2022-10-16T05:17:53;96051.63;;;10.33;100.00
13027;BME280;6580;42.680;23.324;2022-10-16T05:20:20;96053.75;;;10.49;100.00
13027;BME280;6580;42.680;23.324;2022-10-16T05:22:47;96032.06;;;10.72;100.00
13027;BME280;6580;42.680;23.324;2022-10-16T05:25:14;96049.59;;;10.84;98.89
13027;BME280;6580;42.680;23.324;2022-10-16T05:27:40;96047.63;;;10.77;98.31
13027;BME280;6580;42.680;23.324;2022-10-16T05:30:08;96047.16;;;10.43;100.00
13027;BME280;6580;42.680;23.324;2022-10-16T05:32:35;96059.56;;;10.24;100.00
13027;BME280;6580;42.680;23.324;2022-10-16T05:35:05;96050.66;;;10.44;100.00
13027;BME280;6580;42.680;23.324;2022-10-16T05:37:34;96051.38;;;10.46;99.56
13027;BME280;6580;42.680;23.324;2022-10-16T05:40:02;96058.38;;;10.47;100.00
13027;BME280;6580;42.680;23.324;2022-10-16T05:42:30;96062.84;;;10.46;100.00
13027;BME280;6580;42.680;23.324;2022-10-16T05:44:57;96057.03;;;10.81;100.00
13027;BME280;6580;42.680;23.324;2022-10-16T05:47:24;96058.00;;;10.89;97.25
13027;BME280;6580;42.680;23.324;2022-10-16T05:49:51;96056.91;;;10.92;96.11
13027;BME280;6580;42.680;23.324;2022-10-16T05:52:20;96061.53;;;10.90;96.38
13027;BME280;6580;42.680;23.324;2022-10-16T05:54:47;96057.47;;;10.86;97.03
13027;BME280;6580;42.680;23.324;2022-10-16T05:57:17;96073.72;;;10.92;97.24
13027;BME280;6580;42.680;23.324;2022-10-16T05:59:45;95994.03;;;10.42;97.52
13027;BME280;6580;42.680;23.324;2022-10-16T06:02:13;96074.44;;;10.94;97.49
13027;BME280;6580;42.680;23.324;2022-10-16T06:04:40;96080.31;;;10.88;97.78
13027;BME280;6580;42.680;23.324;2022-10-16T06:07:07;96082.56;;;11.11;97.87
13027;BME280;6580;42.680;23.324;2022-10-16T06:09:35;96087.50;;;11.07;98.53
13027;BME280;6580;42.680;23.324;2022-10-16T06:12:02;96090.97;;;11.35;95.82
13027;BME280;6580;42.680;23.324;2022-10-16T06:14:29;96077.78;;;11.43;94.91
13027;BME280;6580;42.680;23.324;2022-10-16T06:16:56;96094.34;;;11.56;94.00
13027;BME280;6580;42.680;23.324;2022-10-16T06:19:23;96085.91;;;11.51;94.11
13027;BME280;6580;42.680;23.324;2022-10-16T06:21:50;96092.22;;;11.69;94.29
13027;BME280;6580;42.680;23.324;2022-10-16T06:24:17;96098.25;;;11.71;92.89
13027;BME280;6580;42.680;23.324;2022-10-16T06:26:45;96103.56;;;11.81;91.93
13027;BME280;6580;42.680;23.324;2022-10-16T06:29:12;96091.25;;;11.51;93.28
13027;BME280;6580;42.680;23.324;2022-10-16T06:31:39;96100.38;;;11.68;93.79
13027;BME280;6580;42.680;23.324;2022-10-16T06:34:08;96098.97;;;11.73;92.91
13027;BME280;6580;42.680;23.324;2022-10-16T06:36:37;96105.19;;;11.64;94.72
13027;BME280;6580;42.680;23.324;2022-10-16T06:39:04;96107.53;;;11.67;93.87
13027;BME280;6580;42.680;23.324;2022-10-16T06:41:35;96107.72;;;12.02;91.89
13027;BME280;6580;42.680;23.324;2022-10-16T06:44:09;96106.38;;;11.89;91.89
13027;BME280;6580;42.680;23.324;2022-10-16T06:46:35;96111.72;;;11.89;92.05
13027;BME280;6580;42.680;23.324;2022-10-16T06:49:02;96116.88;;;12.00;92.56
13027;BME280;6580;42.680;23.324;2022-10-16T06:51:32;96114.78;;;11.94;92.14
13027;BME280;6580;42.680;23.324;2022-10-16T06:54:00;96120.78;;;12.05;92.32
13027;BME280;6580;42.680;23.324;2022-10-16T06:56:29;96130.00;;;12.20;91.00
13027;BME280;6580;42.680;23.324;2022-10-16T06:58:59;96125.59;;;12.38;89.10
13027;BME280;6580;42.680;23.324;2022-10-16T07:01:28;96135.50;;;12.18;89.73
13027;BME280;6580;42.680;23.324;2022-10-16T07:03:55;96128.16;;;12.30;89.64
13027;BME280;6580;42.680;23.324;2022-10-16T07:06:24;96130.13;;;12.28;89.03
13027;BME280;6580;42.680;23.324;2022-10-16T07:08:53;96105.41;;;12.26;87.67
13027;BME280;6580;42.680;23.324;2022-10-16T07:11:22;96132.59;;;12.39;87.72
13027;BME280;6580;42.680;23.324;2022-10-16T07:14:00;96136.78;;;12.51;87.68
13027;BME280;6580;42.680;23.324;2022-10-16T07:16:30;96127.53;;;12.45;86.22
13027;BME280;6580;42.680;23.324;2022-10-16T07:18:59;96136.78;;;12.78;86.28
13027;BME280;6580;42.680;23.324;2022-10-16T07:21:28;96134.41;;;12.75;85.65
13027;BME280;6580;42.680;23.324;2022-10-16T07:23:57;96131.53;;;12.86;84.50
13027;BME280;6580;42.680;23.324;2022-10-16T07:26:29;96141.47;;;13.03;82.30
13027;BME280;6580;42.680;23.324;2022-10-16T07:28:56;96138.31;;;12.90;83.54
13027;BME280;6580;42.680;23.324;2022-10-16T07:31:28;96145.44;;;12.99;83.20
13027;BME280;6580;42.680;23.324;2022-10-16T07:33:57;96140.03;;;12.81;83.86
13027;BME280;6580;42.680;23.324;2022-10-16T07:36:27;96143.06;;;12.86;82.97
13027;BME280;6580;42.680;23.324;2022-10-16T07:38:55;96129.28;;;13.35;81.55
13027;BME280;6580;42.680;23.324;2022-10-16T07:41:21;96139.53;;;14.17;78.88
13027;BME280;6580;42.680;23.324;2022-10-16T07:43:50;96132.69;;;14.56;74.85
13027;BME280;6580;42.680;23.324;2022-10-16T07:46:18;96134.97;;;15.18;71.36
13027;BME280;6580;42.680;23.324;2022-10-16T07:48:46;96129.38;;;16.08;66.04
13027;BME280;6580;42.680;23.324;2022-10-16T07:51:15;96120.00;;;15.80;65.60
13027;BME280;6580;42.680;23.324;2022-10-16T07:53:42;96124.81;;;15.93;64.19
13027;BME280;6580;42.680;23.324;2022-10-16T07:56:12;96132.66;;;16.66;62.05
13027;BME280;6580;42.680;23.324;2022-10-16T07:58:41;96123.03;;;17.70;58.81
13027;BME280;6580;42.680;23.324;2022-10-16T08:01:10;96135.03;;;17.90;55.50
13027;BME280;6580;42.680;23.324;2022-10-16T08:03:42;96127.94;;;18.34;54.50
13027;BME280;6580;42.680;23.324;2022-10-16T08:06:10;96130.78;;;18.55;50.95
13027;BME280;6580;42.680;23.324;2022-10-16T08:08:39;96122.56;;;19.35;51.19
13027;BME280;6580;42.680;23.324;2022-10-16T08:11:07;96118.44;;;19.95;48.69
13027;BME280;6580;42.680;23.324;2022-10-16T08:13:34;96118.19;;;19.90;47.45
13027;BME280;6580;42.680;23.324;2022-10-16T08:16:01;96113.94;;;20.23;45.51
13027;BME280;6580;42.680;23.324;2022-10-16T08:18:33;96111.75;;;20.33;44.88
13027;BME280;6580;42.680;23.324;2022-10-16T08:21:00;96113.28;;;19.79;46.29
13027;BME280;6580;42.680;23.324;2022-10-16T08:23:29;96107.16;;;20.34;45.07
13027;BME280;6580;42.680;23.324;2022-10-16T08:26:00;96106.00;;;21.04;43.11
13027;BME280;6580;42.680;23.324;2022-10-16T08:28:28;96101.72;;;21.62;42.56
13027;BME280;6580;42.680;23.324;2022-10-16T08:30:54;96110.78;;;22.15;41.44
13027;BME280;6580;42.680;23.324;2022-10-16T08:33:22;96111.88;;;22.46;39.83
13027;BME280;6580;42.680;23.324;2022-10-16T08:35:53;96095.19;;;22.36;39.74
13027;BME280;6580;42.680;23.324;2022-10-16T08:38:20;96094.09;;;22.63;38.87
13027;BME280;6580;42.680;23.324;2022-10-16T08:40:48;96102.81;;;23.17;38.20
13027;BME280;6580;42.680;23.324;2022-10-16T08:43:29;96094.38;;;23.88;36.77
13027;BME280;6580;42.680;23.324;2022-10-16T08:46:19;96085.44;;;24.05;36.34
13027;BME280;6580;42.680;23.324;2022-10-16T08:48:50;96100.00;;;23.86;34.40
13027;BME280;6580;42.680;23.324;2022-10-16T08:51:21;96102.75;;;24.17;36.39
13027;BME280;6580;42.680;23.324;2022-10-16T08:53:52;96097.41;;;24.35;34.39
13027;BME280;6580;42.680;23.324;2022-10-16T08:56:22;96098.03;;;25.04;33.29
13027;BME280;6580;42.680;23.324;2022-10-16T08:58:49;96102.41;;;24.87;33.35
13027;BME280;6580;42.680;23.324;2022-10-16T09:01:19;96114.13;;;24.87;31.91
13027;BME280;6580;42.680;23.324;2022-10-16T09:04:07;96108.03;;;24.67;31.02
13027;BME280;6580;42.680;23.324;2022-10-16T09:06:46;96110.28;;;23.84;33.09
13027;BME280;6580;42.680;23.324;2022-10-16T09:09:37;96100.38;;;24.27;32.36
13027;BME280;6580;42.680;23.324;2022-10-16T09:12:14;96097.03;;;25.23;31.86
13027;BME280;6580;42.680;23.324;2022-10-16T09:14:58;96089.56;;;25.12;30.95
13027;BME280;6580;42.680;23.324;2022-10-16T09:17:37;96087.19;;;25.22;30.73
13027;BME280;6580;42.680;23.324;2022-10-16T09:20:19;96096.88;;;25.36;29.98
13027;BME280;6580;42.680;23.324;2022-10-16T09:22:52;96089.97;;;25.51;30.20
13027;BME280;6580;42.680;23.324;2022-10-16T09:25:21;96077.84;;;25.47;30.12
13027;BME280;6580;42.680;23.324;2022-10-16T09:27:54;96098.66;;;26.25;28.68
13027;BME280;6580;42.680;23.324;2022-10-16T09:30:29;96094.25;;;26.65;27.24
13027;BME280;6580;42.680;23.324;2022-10-16T09:33:03;96087.72;;;25.30;29.46
13027;BME280;6580;42.680;23.324;2022-10-16T09:35:33;96097.88;;;24.26;31.14
13027;BME280;6580;42.680;23.324;2022-10-16T09:38:02;96104.50;;;24.36;30.73
13027;BME280;6580;42.680;23.324;2022-10-16T09:40:31;96095.97;;;24.26;30.96
13027;BME280;6580;42.680;23.324;2022-10-16T09:43:20;96094.06;;;24.82;30.13
13027;BME280;6580;42.680;23.324;2022-10-16T09:45:59;96087.56;;;25.25;29.97
13027;BME280;6580;42.680;23.324;2022-10-16T09:48:33;96076.41;;;26.21;29.39
13027;BME280;6580;42.680;23.324;2022-10-16T09:51:03;96079.69;;;25.35;29.94
13027;BME280;6580;42.680;23.324;2022-10-16T09:53:39;96078.09;;;25.46;29.35
13027;BME280;6580;42.680;23.324;2022-10-16T09:56:09;96069.66;;;24.45;31.14
13027;BME280;6580;42.680;23.324;2022-10-16T09:58:43;96070.22;;;25.20;29.47
13027;BME280;6580;42.680;23.324;2022-10-16T10:01:16;96069.06;;;26.74;27.96
13027;BME280;6580;42.680;23.324;2022-10-16T10:03:43;96060.56;;;26.00;28.48
13027;BME280;6580;42.680;23.324;2022-10-16T10:06:30;96060.03;;;26.96;27.76
13027;BME280;6580;42.680;23.324;2022-10-16T10:09:04;96055.03;;;27.28;27.62
13027;BME280;6580;42.680;23.324;2022-10-16T10:11:49;96071.88;;;26.45;27.05
13027;BME280;6580;42.680;23.324;2022-10-16T10:14:24;96062.75;;;26.74;26.61
13027;BME280;6580;42.680;23.324;2022-10-16T10:17:00;96056.56;;;26.78;26.91
13027;BME280;6580;42.680;23.324;2022-10-16T10:19:29;96062.06;;;26.26;27.61
13027;BME280;6580;42.680;23.324;2022-10-16T10:21:56;96057.53;;;27.06;26.09
13027;BME280;6580;42.680;23.324;2022-10-16T10:24:23;96058.34;;;26.73;25.94
13027;BME280;6580;42.680;23.324;2022-10-16T10:26:54;96045.47;;;26.39;25.74
13027;BME280;6580;42.680;23.324;2022-10-16T10:29:34;96056.81;;;26.99;25.47
13027;BME280;6580;42.680;23.324;2022-10-16T10:32:18;96032.44;;;27.09;25.94
13027;BME280;6580;42.680;23.324;2022-10-16T10:34:57;96038.25;;;27.13;26.05
13027;BME280;6580;42.680;23.324;2022-10-16T10:37:40;96043.97;;;27.00;26.63
13027;BME280;6580;42.680;23.324;2022-10-16T10:40:21;96038.28;;;26.90;26.89
13027;BME280;6580;42.680;23.324;2022-10-16T10:42:54;96029.81;;;26.91;27.43
13027;BME280;6580;42.680;23.324;2022-10-16T10:45:27;96029.13;;;28.14;25.75
13027;BME280;6580;42.680;23.324;2022-10-16T10:50:52;96024.50;;;27.87;25.22
13027;BME280;6580;42.680;23.324;2022-10-16T10:53:31;96021.41;;;27.55;25.53
13027;BME280;6580;42.680;23.324;2022-10-16T10:56:14;96027.09;;;25.75;27.04
13027;BME280;6580;42.680;23.324;2022-10-16T10:58:58;96006.59;;;26.37;27.30
13027;BME280;6580;42.680;23.324;2022-10-16T11:01:38;96013.66;;;26.90;25.74
13027;BME280;6580;42.680;23.324;2022-10-16T11:04:25;96006.28;;;27.02;24.86
13027;BME280;6580;42.680;23.324;2022-10-16T11:06:59;96014.63;;;27.07;24.02
13027;BME280;6580;42.680;23.324;2022-10-16T11:09:31;96011.28;;;27.16;24.06
13027;BME280;6580;42.680;23.324;2022-10-16T11:12:06;96013.19;;;26.59;25.21
13027;BME280;6580;42.680;23.324;2022-10-16T11:14:39;96013.97;;;26.25;25.78
13027;BME280;6580;42.680;23.324;2022-10-16T11:17:12;96006.13;;;27.71;25.08
13027;BME280;6580;42.680;23.324;2022-10-16T11:19:44;95994.38;;;28.31;23.87
13027;BME280;6580;42.680;23.324;2022-10-16T11:22:18;95984.66;;;26.89;25.50
13027;BME280;6580;42.680;23.324;2022-10-16T11:24:49;95989.50;;;27.88;24.50
13027;BME280;6580;42.680;23.324;2022-10-16T11:27:33;95994.59;;;29.11;23.61
13027;BME280;6580;42.680;23.324;2022-10-16T11:30:05;95989.88;;;28.91;23.64
13027;BME280;6580;42.680;23.324;2022-10-16T11:32:49;95991.81;;;28.90;23.63
13027;BME280;6580;42.680;23.324;2022-10-16T11:35:19;95983.50;;;29.23;22.66
13027;BME280;6580;42.680;23.324;2022-10-16T11:37:49;95994.06;;;28.93;23.68
13027;BME280;6580;42.680;23.324;2022-10-16T11:40:22;95995.47;;;29.17;22.52
13027;BME280;6580;42.680;23.324;2022-10-16T11:42:56;95991.38;;;28.98;23.45
13027;BME280;6580;42.680;23.324;2022-10-16T11:45:32;95995.56;;;28.84;23.02
13027;BME280;6580;42.680;23.324;2022-10-16T11:48:09;95996.25;;;27.70;24.43
13027;BME280;6580;42.680;23.324;2022-10-16T11:50:45;95995.72;;;28.61;23.75
13027;BME280;6580;42.680;23.324;2022-10-16T11:53:21;95987.31;;;29.22;23.25
13027;BME280;6580;42.680;23.324;2022-10-16T11:55:50;95990.53;;;29.57;22.72
13027;BME280;6580;42.680;23.324;2022-10-16T11:58:24;95985.91;;;28.82;23.27
13027;BME280;6580;42.680;23.324;2022-10-16T12:00:58;95988.59;;;28.44;23.92
13027;BME280;6580;42.680;23.324;2022-10-16T12:03:31;95992.72;;;28.96;23.69
13027;BME280;6580;42.680;23.324;2022-10-16T12:06:13;95987.38;;;29.91;22.58
13027;BME280;6580;42.680;23.324;2022-10-16T12:08:43;95981.03;;;30.17;22.67
13027;BME280;6580;42.680;23.324;2022-10-16T12:11:34;95978.34;;;30.22;21.96
13027;BME280;6580;42.680;23.324;2022-10-16T12:14:33;95995.03;;;29.89;22.20
13027;BME280;6580;42.680;23.324;2022-10-16T12:17:24;95989.41;;;29.15;23.11
13027;BME280;6580;42.680;23.324;2022-10-16T12:20:20;95981.09;;;28.89;23.71
13027;BME280;6580;42.680;23.324;2022-10-16T12:22:52;95981.31;;;28.21;24.11
13027;BME280;6580;42.680;23.324;2022-10-16T12:25:23;95981.00;;;28.67;23.91
13027;BME280;6580;42.680;23.324;2022-10-16T12:27:55;95985.94;;;29.89;22.76
13027;BME280;6580;42.680;23.324;2022-10-16T12:30:24;95974.00;;;28.93;22.58
13027;BME280;6580;42.680;23.324;2022-10-16T12:32:55;95982.25;;;29.78;22.81
13027;BME280;6580;42.680;23.324;2022-10-16T12:35:26;95989.47;;;29.84;22.82
13027;BME280;6580;42.680;23.324;2022-10-16T12:37:54;95989.00;;;30.45;22.55
13027;BME280;6580;42.680;23.324;2022-10-16T12:40:35;95979.22;;;30.95;21.95
13027;BME280;6580;42.680;23.324;2022-10-16T12:43:25;95969.72;;;30.76;21.77
13027;BME280;6580;42.680;23.324;2022-10-16T12:46:01;95983.19;;;30.41;21.63
13027;BME280;6580;42.680;23.324;2022-10-16T12:48:31;95985.94;;;29.89;22.09
13027;BME280;6580;42.680;23.324;2022-10-16T12:51:11;95977.63;;;30.31;21.97
13027;BME280;6580;42.680;23.324;2022-10-16T12:53:39;95992.25;;;29.63;22.83
13027;BME280;6580;42.680;23.324;2022-10-16T12:56:14;95987.28;;;29.38;23.54
13027;BME280;6580;42.680;23.324;2022-10-16T12:58:53;95993.69;;;28.07;24.22
13027;BME280;6580;42.680;23.324;2022-10-16T13:01:36;95993.88;;;26.08;26.46
13027;BME280;6580;42.680;23.324;2022-10-16T13:04:26;96002.91;;;24.96;28.24
13027;BME280;6580;42.680;23.324;2022-10-16T13:07:14;96006.56;;;24.72;29.02
13027;BME280;6580;42.680;23.324;2022-10-16T13:10:01;96010.34;;;23.98;29.76
13027;BME280;6580;42.680;23.324;2022-10-16T13:12:49;96007.03;;;23.59;30.20
13027;BME280;6580;42.680;23.324;2022-10-16T13:15:37;96008.41;;;23.37;30.17
13027;BME280;6580;42.680;23.324;2022-10-16T13:18:13;96010.16;;;23.25;30.23
13027;BME280;6580;42.680;23.324;2022-10-16T13:21:02;96006.59;;;23.24;29.74
13027;BME280;6580;42.680;23.324;2022-10-16T13:23:36;96008.53;;;22.98;30.52